createdAt,value
2023-03-02T00:01:56.019Z,123.20
2023-03-02T00:04:32.457Z,120.50
2023-03-02T00:07:05.320Z,120.50
2023-03-02T00:09:33.632Z,113.30
2023-03-02T00:12:03.001Z,121.20
2023-03-02T00:14:31.520Z,127.10
2023-03-02T00:16:59.752Z,120.30
2023-03-02T00:19:27.727Z,117.80
2023-03-02T00:21:55.737Z,119.60
2023-03-02T00:24:23.833Z,118.70
2023-03-02T00:26:51.946Z,116.00
2023-03-02T00:29:19.928Z,112.60
2023-03-02T00:31:48.021Z,112.60
2023-03-02T00:34:17.017Z,116.20
2023-03-02T00:36:45.056Z,104.20
2023-03-02T00:39:12.988Z,112.10
2023-03-02T00:41:40.866Z,110.30
2023-03-02T00:44:08.892Z,94.40
2023-03-02T00:46:36.895Z,103.20
2023-03-02T00:49:05.053Z,115.90
2023-03-02T00:51:33.457Z,109.40
2023-03-02T00:54:03.034Z,118.10
2023-03-02T00:56:31.864Z,104.80
2023-03-02T00:59:06.145Z,89.60
2023-03-02T01:01:34.214Z,98.00
2023-03-02T01:04:02.256Z,94.60
2023-03-02T01:06:30.577Z,107.00
2023-03-02T01:08:58.694Z,106.50
2023-03-02T01:11:26.627Z,105.50
2023-03-02T01:13:54.538Z,132.80
2023-03-02T01:16:22.538Z,208.10
2023-03-02T01:18:50.639Z,365.60
2023-03-02T01:21:18.736Z,311.40
2023-03-02T01:23:46.756Z,286.20
2023-03-02T01:26:14.887Z,311.30
2023-03-02T01:28:42.978Z,316.40
2023-03-02T01:31:11.029Z,283.20
2023-03-02T01:33:39.048Z,335.60
2023-03-02T01:36:08.173Z,371.10
2023-03-02T01:38:36.196Z,500.60
2023-03-02T01:41:04.558Z,613.90
2023-03-02T01:43:32.713Z,567.20
2023-03-02T01:46:18.777Z,579.70
2023-03-02T01:49:12.085Z,600.70
2023-03-02T01:51:46.357Z,527.50
2023-03-02T01:54:23.226Z,455.50
2023-03-02T01:56:58.253Z,379.20
2023-03-02T01:59:28.978Z,382.90
2023-03-02T02:01:59.256Z,380.90
2023-03-02T02:04:28.966Z,329.40
2023-03-02T02:07:02.018Z,329.30
2023-03-02T02:09:33.985Z,364.60
2023-03-02T02:12:02.525Z,431.80
2023-03-02T02:14:30.511Z,403.70
2023-03-02T02:16:58.617Z,372.50
2023-03-02T02:19:41.723Z,367.10
2023-03-02T02:22:11.580Z,339.50
2023-03-02T02:24:53.964Z,299.10
2023-03-02T02:27:22.237Z,336.80
2023-03-02T02:29:51.535Z,283.10
2023-03-02T02:32:30.970Z,434.10
2023-03-02T02:35:20.376Z,427.70
2023-03-02T02:37:57.597Z,378.10
2023-03-02T02:40:50.105Z,370.00
2023-03-02T02:43:21.533Z,448.70
2023-03-02T02:45:53.920Z,445.20
2023-03-02T02:48:24.915Z,388.30
2023-03-02T02:51:00.685Z,348.60
2023-03-02T02:53:43.236Z,314.50
2023-03-02T02:56:12.501Z,302.50
2023-03-02T02:58:43.732Z,294.40
2023-03-02T03:01:15.435Z,238.60
2023-03-02T03:03:51.627Z,229.20
2023-03-02T03:06:26.136Z,226.40
2023-03-02T03:08:59.499Z,229.50
2023-03-02T03:11:31.827Z,220.80
2023-03-02T03:14:05.855Z,228.90
2023-03-02T03:16:35.766Z,221.00
2023-03-02T03:19:18.346Z,210.20
2023-03-02T03:21:49.853Z,230.50
2023-03-02T03:24:19.026Z,223.00
2023-03-02T03:26:47.235Z,195.10
2023-03-02T03:29:17.593Z,195.50
2023-03-02T03:31:45.705Z,184.90
2023-03-02T03:34:13.859Z,187.60
2023-03-02T03:36:43.574Z,194.50
2023-03-02T03:39:12.905Z,188.50
2023-03-02T03:41:41.334Z,202.40
2023-03-02T03:44:09.395Z,212.50
2023-03-02T03:46:37.963Z,210.20
2023-03-02T03:49:06.324Z,224.80
2023-03-02T03:51:35.663Z,230.30
2023-03-02T03:54:08.118Z,228.90
2023-03-02T03:56:40.854Z,196.60
2023-03-02T04:01:49.548Z,205.00
2023-03-02T04:04:29.863Z,228.70
2023-03-02T04:06:58.474Z,227.30
2023-03-02T04:09:27.066Z,217.50
2023-03-02T04:11:56.394Z,283.80
2023-03-02T04:14:24.843Z,323.10
2023-03-02T04:16:53.739Z,294.40
2023-03-02T04:19:22.518Z,288.60
2023-03-02T04:21:53.857Z,271.20
2023-03-02T04:24:23.430Z,265.10
2023-03-02T04:26:51.927Z,249.50
2023-03-02T04:29:20.061Z,250.00
2023-03-02T04:31:48.646Z,258.90
2023-03-02T04:34:16.753Z,251.60
2023-03-02T04:36:45.511Z,234.00
2023-03-02T04:39:16.452Z,230.90
2023-03-02T04:41:45.716Z,236.30
2023-03-02T04:44:15.799Z,196.00
2023-03-02T04:46:45.479Z,157.00
2023-03-02T04:49:16.159Z,146.20
2023-03-02T04:51:47.325Z,133.20
2023-03-02T04:54:25.042Z,127.30
2023-03-02T04:56:54.201Z,113.40
2023-03-02T04:59:26.726Z,134.10
2023-03-02T05:01:58.481Z,135.80
2023-03-02T05:04:27.933Z,131.10
2023-03-02T05:06:57.226Z,130.20
2023-03-02T05:09:31.095Z,124.10
2023-03-02T05:12:01.415Z,127.80
2023-03-02T05:14:30.001Z,120.30
2023-03-02T05:16:58.627Z,121.30
2023-03-02T05:19:26.842Z,122.10
2023-03-02T05:21:56.584Z,125.50
2023-03-02T05:24:24.506Z,108.30
2023-03-02T05:26:52.445Z,121.70
2023-03-02T05:29:20.411Z,121.40
2023-03-02T05:31:50.113Z,110.60
2023-03-02T05:34:18.495Z,103.80
2023-03-02T05:36:46.764Z,103.20
2023-03-02T05:39:14.808Z,116.20
2023-03-02T05:41:42.812Z,113.40
2023-03-02T05:44:12.234Z,120.70
2023-03-02T05:46:40.719Z,105.80
2023-03-02T05:49:08.804Z,119.20
2023-03-02T05:51:36.753Z,101.40
2023-03-02T05:54:04.786Z,97.30
2023-03-02T05:56:33.276Z,106.90
2023-03-02T05:59:01.670Z,115.70
2023-03-02T06:01:29.836Z,113.00
2023-03-02T06:03:57.843Z,118.60
2023-03-02T06:06:25.900Z,115.00
2023-03-02T06:08:53.903Z,138.70
2023-03-02T06:11:21.939Z,129.60
2023-03-02T06:13:49.983Z,127.80
2023-03-02T06:16:18.218Z,126.30
2023-03-02T06:18:46.923Z,100.70
2023-03-02T06:21:14.952Z,88.30
2023-03-02T06:23:42.909Z,84.10
2023-03-02T06:26:12.460Z,93.30
2023-03-02T06:28:52.155Z,79.80
2023-03-02T06:31:22.294Z,85.70
2023-03-02T06:33:50.405Z,83.10
2023-03-02T06:36:18.615Z,67.40
2023-03-02T06:38:46.609Z,79.60
2023-03-02T06:41:14.860Z,73.10
2023-03-02T06:43:43.060Z,71.20
2023-03-02T06:46:12.013Z,69.50
2023-03-02T06:48:40.149Z,66.00
2023-03-02T06:51:08.683Z,78.00
2023-03-02T06:53:36.758Z,66.20
2023-03-02T06:56:05.440Z,75.00
2023-03-02T06:58:33.464Z,74.30
2023-03-02T07:01:01.461Z,68.00
2023-03-02T07:03:29.743Z,69.40
2023-03-02T07:05:57.738Z,72.50
2023-03-02T07:08:25.735Z,79.00
2023-03-02T07:10:53.808Z,86.10
2023-03-02T07:13:22.046Z,83.10
2023-03-02T07:15:50.122Z,88.90
2023-03-02T07:18:18.182Z,86.90
2023-03-02T07:20:46.109Z,74.30
2023-03-02T07:23:20.399Z,63.30
2023-03-02T07:25:49.057Z,57.30
2023-03-02T07:28:17.117Z,53.70
2023-03-02T07:30:45.130Z,48.50
2023-03-02T07:33:13.117Z,67.30
2023-03-02T07:35:41.060Z,63.80
2023-03-02T07:38:08.977Z,60.10
2023-03-02T07:40:42.071Z,54.40
2023-03-02T07:43:10.912Z,50.90
2023-03-02T07:45:39.363Z,51.20
2023-03-02T07:48:07.444Z,49.10
2023-03-02T07:50:35.491Z,48.20
2023-03-02T07:53:03.579Z,50.10
2023-03-02T07:55:31.508Z,47.70
2023-03-02T07:57:59.470Z,46.20
2023-03-02T08:00:27.582Z,42.80
2023-03-02T08:02:55.560Z,45.80
2023-03-02T08:05:23.582Z,51.20
2023-03-02T08:07:51.665Z,47.20
2023-03-02T08:10:19.676Z,55.70
2023-03-02T08:12:47.758Z,53.10
2023-03-02T08:15:15.738Z,41.10
2023-03-02T08:17:43.681Z,54.30
2023-03-02T08:20:12.204Z,49.70
2023-03-02T08:22:40.149Z,49.50
2023-03-02T08:25:08.580Z,54.80
2023-03-02T08:27:36.795Z,49.90
2023-03-02T08:30:05.806Z,45.60
2023-03-02T08:32:34.665Z,46.70
2023-03-02T08:35:04.322Z,48.20
2023-03-02T08:37:32.539Z,45.50
2023-03-02T08:40:00.494Z,48.30
2023-03-02T08:42:28.571Z,47.00
2023-03-02T08:44:56.495Z,50.70
2023-03-02T08:47:24.653Z,57.20
2023-03-02T08:49:52.687Z,61.70
2023-03-02T08:52:20.699Z,49.70
2023-03-02T08:54:48.726Z,52.90
2023-03-02T08:57:16.812Z,59.10
2023-03-02T08:59:44.829Z,50.60
2023-03-02T09:02:12.881Z,58.80
2023-03-02T09:04:41.215Z,53.20
2023-03-02T09:07:10.366Z,40.10
2023-03-02T09:09:38.500Z,48.10
2023-03-02T09:12:06.880Z,49.70
2023-03-02T09:14:35.035Z,46.00
2023-03-02T09:17:03.769Z,41.90
2023-03-02T09:19:31.769Z,42.40
2023-03-02T09:21:59.819Z,49.10
2023-03-02T09:24:27.986Z,64.30
2023-03-02T09:26:56.056Z,55.40
2023-03-02T09:29:24.169Z,47.50
2023-03-02T09:31:52.475Z,51.10
2023-03-02T09:34:21.023Z,47.00
2023-03-02T09:36:49.229Z,45.30
2023-03-02T09:39:19.496Z,41.00
2023-03-02T09:41:58.216Z,46.10
2023-03-02T09:45:04.901Z,38.60
2023-03-02T09:48:13.777Z,46.70
2023-03-02T09:50:56.342Z,53.10
2023-03-02T09:53:44.024Z,50.20
2023-03-02T09:56:18.280Z,59.90
2023-03-02T09:59:14.153Z,57.10
2023-03-02T10:01:49.147Z,50.00
2023-03-02T10:04:30.634Z,50.60
2023-03-02T10:07:12.456Z,41.60
2023-03-02T10:09:41.411Z,45.40
2023-03-02T10:12:22.904Z,41.00
2023-03-02T10:15:13.404Z,46.80
2023-03-02T10:18:09.289Z,42.50
2023-03-02T10:21:00.521Z,43.20
2023-03-02T10:23:59.336Z,40.00
2023-03-02T10:26:49.072Z,55.00
2023-03-02T10:29:39.664Z,43.00
2023-03-02T10:32:50.679Z,45.20
2023-03-02T10:35:25.071Z,109.90
2023-03-02T10:38:13.400Z,78.30
2023-03-02T10:41:07.684Z,68.30
2023-03-02T10:44:07.516Z,73.10
2023-03-02T10:46:43.864Z,59.60
2023-03-02T10:49:36.862Z,61.70
2023-03-02T10:52:19.633Z,75.50
2023-03-02T10:54:48.202Z,61.20
2023-03-02T10:57:31.191Z,49.00
2023-03-02T11:03:22.019Z,48.70
2023-03-02T11:05:49.552Z,51.60
2023-03-02T11:08:20.907Z,45.90
2023-03-02T11:11:02.969Z,54.40
2023-03-02T11:13:31.064Z,56.70
2023-03-02T11:16:18.640Z,51.60
2023-03-02T11:19:02.559Z,55.10
2023-03-02T11:21:43.159Z,52.70
2023-03-02T11:24:36.627Z,61.50
2023-03-02T11:27:20.515Z,56.30
2023-03-02T11:29:53.862Z,42.80
2023-03-02T11:32:57.664Z,48.40
2023-03-02T11:35:50.988Z,52.00
2023-03-02T11:38:49.069Z,58.10
2023-03-02T11:41:35.598Z,56.10
2023-03-02T11:44:29.822Z,51.20
2023-03-02T11:47:01.376Z,47.90
2023-03-02T11:50:06.441Z,48.80
2023-03-02T11:52:38.644Z,48.80
2023-03-02T11:55:12.686Z,48.20
2023-03-02T11:57:50.461Z,56.90
2023-03-02T12:00:32.302Z,53.90
2023-03-02T12:02:59.947Z,48.70
2023-03-02T12:05:30.330Z,47.70
2023-03-02T12:08:02.303Z,45.50
2023-03-02T12:10:57.146Z,47.10
2023-03-02T12:13:38.687Z,46.80
2023-03-02T12:16:42.327Z,47.10
2023-03-02T12:19:38.679Z,55.10
2023-03-02T12:22:14.194Z,50.40
2023-03-02T12:24:44.312Z,48.90
2023-03-02T12:27:20.234Z,53.50
2023-03-02T12:29:55.531Z,50.10
2023-03-02T12:32:30.950Z,62.20
2023-03-02T12:35:09.214Z,53.30
2023-03-02T12:37:52.883Z,52.30
2023-03-02T12:41:03.778Z,46.30
2023-03-02T12:43:34.987Z,49.10
2023-03-02T12:46:43.584Z,42.80
2023-03-02T12:49:13.817Z,50.20
2023-03-02T12:51:59.594Z,53.50
2023-03-02T12:54:33.221Z,59.90
2023-03-02T12:57:18.699Z,65.70
2023-03-02T12:59:58.780Z,62.30
2023-03-02T13:02:32.948Z,58.20
2023-03-02T13:05:07.913Z,57.40
2023-03-02T13:07:42.188Z,52.20
2023-03-02T13:10:35.686Z,65.90
2023-03-02T13:13:17.514Z,58.50
2023-03-02T13:15:51.605Z,62.10
2023-03-02T13:18:20.222Z,55.30
2023-03-02T13:20:47.612Z,58.20
2023-03-02T13:23:15.477Z,50.70
2023-03-02T13:25:57.894Z,48.50
2023-03-02T13:28:28.402Z,51.50
2023-03-02T13:31:00.762Z,56.80
2023-03-02T13:33:29.620Z,51.50
2023-03-02T13:35:56.867Z,54.20
2023-03-02T13:38:36.846Z,55.70
2023-03-02T13:41:04.120Z,53.50
2023-03-02T13:43:36.939Z,51.00
2023-03-02T13:46:13.187Z,55.70
2023-03-02T13:48:40.359Z,55.90
2023-03-02T13:51:19.339Z,54.30
2023-03-02T13:53:54.914Z,59.70
2023-03-02T13:56:28.095Z,57.20
2023-03-02T13:58:55.041Z,61.10
2023-03-02T14:01:21.973Z,59.60
2023-03-02T14:03:48.898Z,55.90
2023-03-02T14:06:18.184Z,57.50
2023-03-02T14:08:46.280Z,60.70
2023-03-02T14:11:16.419Z,63.90
2023-03-02T14:14:02.940Z,56.60
2023-03-02T14:16:29.796Z,61.00
2023-03-02T14:18:56.771Z,61.00
2023-03-02T14:21:25.277Z,61.00
2023-03-02T14:23:53.514Z,55.90
2023-03-02T14:26:31.078Z,56.00
2023-03-02T14:29:05.984Z,56.20
2023-03-02T14:31:34.125Z,57.90
2023-03-02T14:34:01.739Z,52.30
2023-03-02T14:36:32.037Z,53.60
2023-03-02T14:39:01.840Z,58.40
2023-03-02T14:41:29.683Z,59.10
2023-03-02T14:43:56.251Z,65.30
2023-03-02T14:46:23.022Z,60.70
2023-03-02T14:48:52.681Z,61.00
2023-03-02T14:51:26.755Z,60.80
2023-03-02T14:53:54.869Z,59.10
2023-03-02T14:56:22.488Z,52.90
2023-03-02T14:58:53.690Z,61.40
2023-03-02T15:01:23.454Z,64.60
2023-03-02T15:03:50.112Z,65.50
2023-03-02T15:06:29.741Z,62.30
2023-03-02T15:08:59.421Z,61.50
2023-03-02T15:11:27.764Z,65.00
2023-03-02T15:13:55.062Z,70.60
2023-03-02T15:16:22.000Z,65.40
2023-03-02T15:18:50.718Z,71.30
2023-03-02T15:21:22.226Z,70.00
2023-03-02T15:23:50.308Z,69.70
2023-03-02T15:26:17.058Z,67.00
2023-03-02T15:28:44.933Z,68.80
2023-03-02T15:31:14.963Z,60.50
2023-03-02T15:33:42.722Z,64.50
2023-03-02T15:36:09.569Z,65.50
2023-03-02T15:38:36.317Z,60.20
2023-03-02T15:41:10.016Z,67.10
2023-03-02T15:43:37.000Z,66.20
2023-03-02T15:46:05.868Z,65.20
2023-03-02T15:48:32.431Z,66.30
2023-03-02T15:51:01.315Z,68.30
2023-03-02T15:53:29.359Z,70.10
2023-03-02T15:55:56.308Z,74.30
2023-03-02T15:58:23.093Z,81.60
2023-03-02T16:00:50.396Z,64.20
2023-03-02T16:03:18.646Z,67.70
2023-03-02T16:05:45.288Z,61.90
2023-03-02T16:08:12.006Z,57.10
2023-03-02T16:10:42.186Z,61.40
2023-03-02T16:13:12.868Z,53.20
2023-03-02T16:15:40.742Z,53.90
2023-03-02T16:18:09.019Z,64.60
2023-03-02T16:20:37.531Z,60.90
2023-03-02T16:23:07.111Z,63.40
2023-03-02T16:25:39.623Z,67.40
2023-03-02T16:28:07.250Z,59.50
2023-03-02T16:30:34.624Z,64.40
2023-03-02T16:33:04.797Z,61.30
2023-03-02T16:35:33.602Z,70.30
2023-03-02T16:38:00.474Z,76.00
2023-03-02T16:40:27.980Z,75.00
2023-03-02T16:42:54.649Z,94.40
2023-03-02T16:45:21.874Z,108.70
2023-03-02T16:47:49.049Z,94.90
2023-03-02T16:50:17.179Z,72.80
2023-03-02T16:52:44.359Z,75.30
2023-03-02T16:55:17.064Z,74.80
2023-03-02T16:57:44.163Z,82.00
2023-03-02T17:00:15.520Z,71.80
2023-03-02T17:02:42.350Z,66.30
2023-03-02T17:05:11.642Z,67.50
2023-03-02T17:07:38.418Z,70.50
2023-03-02T17:10:09.901Z,73.80
2023-03-02T17:12:36.518Z,74.50
2023-03-02T17:15:03.769Z,72.00
2023-03-02T17:17:30.429Z,78.00
2023-03-02T17:19:57.418Z,84.10
2023-03-02T17:22:25.299Z,99.30
2023-03-02T17:24:51.904Z,98.10
2023-03-02T17:27:25.039Z,99.80
2023-03-02T17:29:54.276Z,101.30
2023-03-02T17:32:23.010Z,114.40
2023-03-02T17:34:51.420Z,108.50
2023-03-02T17:37:18.319Z,105.40
2023-03-02T17:39:45.072Z,95.20
2023-03-02T17:42:11.832Z,101.90
2023-03-02T17:44:40.075Z,104.00
2023-03-02T17:47:07.704Z,88.40
2023-03-02T17:49:39.701Z,85.60
2023-03-02T17:52:06.446Z,69.50
2023-03-02T17:54:33.006Z,65.10
2023-03-02T17:57:02.410Z,63.70
2023-03-02T17:59:29.053Z,69.60
2023-03-02T18:01:56.631Z,71.00
2023-03-02T18:04:23.268Z,65.60
2023-03-02T18:06:50.182Z,67.20
2023-03-02T18:09:17.792Z,62.90
2023-03-02T18:11:45.595Z,68.80
2023-03-02T18:14:18.935Z,65.70
2023-03-02T18:16:46.510Z,75.50
2023-03-02T18:19:13.145Z,72.10
2023-03-02T18:21:41.202Z,80.40
2023-03-02T18:24:08.876Z,65.00
2023-03-02T18:26:35.978Z,67.10
2023-03-02T18:29:03.272Z,61.60
2023-03-02T18:31:30.988Z,65.60
2023-03-02T18:33:58.423Z,72.30
2023-03-02T18:36:25.135Z,85.20
2023-03-02T18:38:53.370Z,73.80
2023-03-02T18:41:23.115Z,74.80
2023-03-02T18:43:49.990Z,75.40
2023-03-02T18:46:23.536Z,79.60
2023-03-02T18:48:51.031Z,76.50
2023-03-02T18:51:19.108Z,77.30
2023-03-02T18:53:46.640Z,69.30
2023-03-02T18:56:14.107Z,71.20
2023-03-02T18:58:41.439Z,82.70
2023-03-02T19:01:08.751Z,77.20
2023-03-02T19:03:38.026Z,70.90
2023-03-02T19:06:06.747Z,75.60
2023-03-02T19:08:35.169Z,82.90
2023-03-02T19:11:03.738Z,77.00
2023-03-02T19:13:30.446Z,81.00
2023-03-02T19:15:57.270Z,71.30
2023-03-02T19:18:25.400Z,71.70
2023-03-02T19:20:53.765Z,72.10
2023-03-02T19:23:21.040Z,75.30
2023-03-02T19:25:47.865Z,82.60
2023-03-02T19:28:15.786Z,81.80
2023-03-02T19:30:42.582Z,90.30
2023-03-02T19:33:09.351Z,137.50
2023-03-02T19:35:37.110Z,139.90
2023-03-02T19:38:05.497Z,92.50
2023-03-02T19:40:33.752Z,80.70
2023-03-02T19:43:00.955Z,86.60
2023-03-02T19:45:33.699Z,75.50
2023-03-02T19:50:28.896Z,80.00
2023-03-02T19:52:56.791Z,80.50
2023-03-02T19:55:24.681Z,81.30
2023-03-02T19:57:58.999Z,76.50
2023-03-02T20:00:28.915Z,95.80
2023-03-02T20:02:57.064Z,78.40
2023-03-02T20:05:26.763Z,77.60
2023-03-02T20:07:54.445Z,77.10
2023-03-02T20:10:41.388Z,89.20
2023-03-02T20:13:09.190Z,94.80
2023-03-02T20:15:39.882Z,88.30
2023-03-02T20:18:09.239Z,80.30
2023-03-02T20:20:35.953Z,89.40
2023-03-02T20:23:06.916Z,85.60
2023-03-02T20:25:34.169Z,83.30
2023-03-02T20:28:05.055Z,85.10
2023-03-02T20:30:36.087Z,80.60
2023-03-02T20:33:06.726Z,87.80
2023-03-02T20:35:37.058Z,86.20
2023-03-02T20:38:08.509Z,75.40
2023-03-02T20:40:36.077Z,76.70
2023-03-02T20:43:03.111Z,83.50
2023-03-02T20:45:29.868Z,89.90
2023-03-02T20:47:57.144Z,93.00
2023-03-02T20:50:29.687Z,84.60
2023-03-02T20:52:57.254Z,84.40
2023-03-02T20:55:25.660Z,92.70
2023-03-02T20:57:55.298Z,99.00
2023-03-02T21:00:27.175Z,87.10
2023-03-02T21:02:54.202Z,84.90
2023-03-02T21:05:21.246Z,96.20
2023-03-02T21:07:49.410Z,94.90
2023-03-02T21:10:21.805Z,83.80
2023-03-02T21:12:48.961Z,86.70
2023-03-02T21:15:19.583Z,80.70
2023-03-02T21:17:46.959Z,80.90
2023-03-02T21:20:18.822Z,70.60
2023-03-02T21:22:45.828Z,72.20
2023-03-02T21:25:16.745Z,74.50
2023-03-02T21:27:44.213Z,74.10
2023-03-02T21:30:24.774Z,75.30
2023-03-02T21:32:51.773Z,72.40
2023-03-02T21:35:21.105Z,72.00
2023-03-02T21:37:52.100Z,75.50
2023-03-02T21:40:26.736Z,73.20
2023-03-02T21:42:54.800Z,61.70
2023-03-02T21:45:22.994Z,71.20
2023-03-02T21:47:50.516Z,65.10
2023-03-02T21:50:26.533Z,66.20
2023-03-02T21:52:54.976Z,72.50
2023-03-02T21:55:22.256Z,83.80
2023-03-02T21:57:49.321Z,73.60
2023-03-02T22:00:22.963Z,84.10
2023-03-02T22:02:52.661Z,74.10
2023-03-02T22:05:20.273Z,78.00
2023-03-02T22:07:47.773Z,78.50
2023-03-02T22:10:45.375Z,72.90
2023-03-02T22:13:26.682Z,67.40
2023-03-02T22:16:22.636Z,70.00
2023-03-02T22:18:57.688Z,66.70
2023-03-02T22:21:37.564Z,87.90
2023-03-02T22:24:10.669Z,77.40
2023-03-02T22:27:07.947Z,77.10
2023-03-02T22:29:43.819Z,73.20
2023-03-02T22:32:18.833Z,85.80
2023-03-02T22:34:48.180Z,89.30
2023-03-02T22:37:23.087Z,75.70
2023-03-02T22:39:53.671Z,71.60
2023-03-02T22:42:26.388Z,78.20
2023-03-02T22:45:06.175Z,74.30
2023-03-02T22:47:32.783Z,70.70
2023-03-02T22:50:19.074Z,77.10
2023-03-02T22:52:45.828Z,64.90
2023-03-02T22:56:01.267Z,68.10
2023-03-02T22:58:42.576Z,65.10
2023-03-02T23:01:42.700Z,67.30
2023-03-02T23:04:23.433Z,74.30
2023-03-02T23:06:53.593Z,68.50
2023-03-02T23:09:42.761Z,75.10
2023-03-02T23:12:27.042Z,72.40
2023-03-02T23:14:58.328Z,69.30
2023-03-02T23:17:37.956Z,79.30
2023-03-02T23:20:09.540Z,74.60
2023-03-02T23:22:38.419Z,71.60
2023-03-02T23:25:07.338Z,76.50
2023-03-02T23:27:34.571Z,69.10
2023-03-02T23:30:01.394Z,75.30
2023-03-02T23:32:28.054Z,72.50
2023-03-02T23:34:54.653Z,70.50
2023-03-02T23:37:21.375Z,72.30
2023-03-02T23:39:47.978Z,71.00
2023-03-02T23:42:14.587Z,70.00
2023-03-02T23:44:41.092Z,75.20
2023-03-02T23:47:07.647Z,70.70
2023-03-02T23:49:34.240Z,63.90
2023-03-02T23:52:01.030Z,64.60
2023-03-02T23:54:27.618Z,76.40
2023-03-02T23:56:54.474Z,71.60
2023-03-02T23:59:21.268Z,74.10
